Kurthwood, Louisiana
Current Conditions -  °F | °C
As of 8:56 PM on Thursday 27 Nov 2014 (Local Time) from KAQV Reporting Station
Clear Clear  
Wind Chill: 43°   Ceiling: Unl
Heat Index: 43°   Visibility: 10mi
Dew Point: 35°   Wind: 0mph
Humidity: 74%   Direction: NA
Pressure: 30.43"   Gusts: NA
Location:  31.34°N, 93.17°W
Report Text: KAQV 280256Z AUTO 00000KT 10SM CLR 06/02 A3043 RMK AO2 SLP306 T00610017 50001
Loading
Personal Weather Stations






























Interactive Weather Map New forecast layout! Learn more

10-Day Weather Forecast

Advertisements
Track Severe Weather on mobile